^^
Meteo Knjazevac Station Historical Data
Daily Summary for May 4, 2021 Units:  Both    English   Metric
Daily Weekly Monthly Yearly Custom
  High: Low: Average:
Temperature: 50.5 °F /  10.3 °C 48.7 °F /  9.3 °C 49.6 °F /  9.8 °C
Dew Point: 50.3 °F /  10.2 °C 48.5 °F /  9.2 °C 49.3 °F /  9.6 °C
Humidity: 99% 99% 99%
Wind Speed: 3mph /  4.8km/h - 1.1mph /  1.8km/h
Wind Gust: 7mph /  11.3km/h - -
Wind- - South
Pressure: 30.07 in /  1018.2 hPa 30.04 in /  1017.2 hPa -
Precipitation: 0.00 in /  0 mm    
Historical Graphs
 
 
Tabular Data for May 4, 2021
Time Temperature Dew Point Pressure Wind Wind Speed Wind Gust Humidity Rainfall Rate (Hourly) solar Conditions
00:00 50.5 °F /  10.3 °C 50.3 °F /  10.2 °C 30.04in /  1017.2hPa North 1mph /  1.6km/h 5mph /  8km/h 99% 0.00in /  0mm 0 W/m2
00:10 50.5 °F /  10.3 °C 50.3 °F /  10.2 °C 30.04in /  1017.2hPa NNE 2mph /  3.2km/h 5mph /  8km/h 99% 0.00in /  0mm 0 W/m2
00:20 50.4 °F /  10.2 °C 50.1 °F /  10.1 °C 30.05in /  1017.5hPa Calm   5mph /  8km/h 99% 0.00in /  0mm 0 W/m2
00:30 50.4 °F /  10.2 °C 50.1 °F /  10.1 °C 30.05in /  1017.5hPa NE 2mph /  3.2km/h 3mph /  4.8km/h 99% 0.00in /  0mm 0 W/m2
00:40 50.4 °F /  10.2 °C 50.1 °F /  10.1 °C 30.05in /  1017.5hPa North 2mph /  3.2km/h 3mph /  4.8km/h 99% 0.00in /  0mm 0 W/m2
00:50 50.2 °F /  10.1 °C 49.9 °F /  9.9 °C 30.05in /  1017.5hPa North 1mph /  1.6km/h 3mph /  4.8km/h 99% 0.00in /  0mm 0 W/m2
01:00 50.2 °F /  10.1 °C 49.9 °F /  9.9 °C 30.05in /  1017.5hPa North 1mph /  1.6km/h 5mph /  8km/h 99% 0.00in /  0mm 0 W/m2
01:10 50.2 °F /  10.1 °C 49.9 °F /  9.9 °C 30.05in /  1017.5hPa Calm   2mph /  3.2km/h 99% 0.00in /  0mm 0 W/m2
01:20 50.2 °F /  10.1 °C 49.9 °F /  9.9 °C 30.04in /  1017.2hPa NNW 1mph /  1.6km/h 2mph /  3.2km/h 99% 0.00in /  0mm 0 W/m2
01:30 50.2 °F /  10.1 °C 49.9 °F /  9.9 °C 30.04in /  1017.2hPa WSW 2mph /  3.2km/h 3mph /  4.8km/h 99% 0.00in /  0mm 0 W/m2
01:40 50 °F /  10 °C 49.7 °F /  9.8 °C 30.04in /  1017.2hPa Calm   3mph /  4.8km/h 99% 0.00in /  0mm 0 W/m2
01:50 50 °F /  10 °C 49.7 °F /  9.8 °C 30.04in /  1017.2hPa West 1mph /  1.6km/h 3mph /  4.8km/h 99% 0.00in /  0mm 0 W/m2
02:00 50 °F /  10 °C 49.7 °F /  9.8 °C 30.04in /  1017.2hPa West 1mph /  1.6km/h 2mph /  3.2km/h 99% 0.00in /  0mm 0 W/m2
02:10 50 °F /  10 °C 49.7 °F /  9.8 °C 30.05in /  1017.5hPa West 1mph /  1.6km/h 3mph /  4.8km/h 99% 0.00in /  0mm 0 W/m2
02:20 50 °F /  10 °C 49.7 °F /  9.8 °C 30.05in /  1017.5hPa NNW 1mph /  1.6km/h 3mph /  4.8km/h 99% 0.00in /  0mm 0 W/m2
02:30 49.8 °F /  9.9 °C 49.6 °F /  9.8 °C 30.05in /  1017.5hPa North 2mph /  3.2km/h 5mph /  8km/h 99% 0.00in /  0mm 0 W/m2
02:40 49.7 °F /  9.8 °C 49.4 °F /  9.7 °C 30.05in /  1017.5hPa Calm   4mph /  6.4km/h 99% 0.00in /  0mm 0 W/m2
02:50 49.6 °F /  9.8 °C 49.4 °F /  9.7 °C 30.05in /  1017.5hPa NW 1mph /  1.6km/h 3mph /  4.8km/h 99% 0.00in /  0mm 0 W/m2
03:00 49.6 °F /  9.8 °C 49.4 °F /  9.7 °C 30.05in /  1017.5hPa Calm   2mph /  3.2km/h 99% 0.00in /  0mm 0 W/m2
03:10 49.6 °F /  9.8 °C 49.4 °F /  9.7 °C 30.05in /  1017.5hPa West 2mph /  3.2km/h 4mph /  6.4km/h 99% 0.00in /  0mm 0 W/m2
03:20 49.5 °F /  9.7 °C 49.2 °F /  9.6 °C 30.04in /  1017.2hPa Calm   2mph /  3.2km/h 99% 0.00in /  0mm 0 W/m2
03:30 49.5 °F /  9.7 °C 49.2 °F /  9.6 °C 30.05in /  1017.5hPa North 1mph /  1.6km/h 2mph /  3.2km/h 99% 0.00in /  0mm 0 W/m2
03:40 49.5 °F /  9.7 °C 49.2 °F /  9.6 °C 30.04in /  1017.2hPa NNE 2mph /  3.2km/h 3mph /  4.8km/h 99% 0.00in /  0mm 0 W/m2
03:50 49.5 °F /  9.7 °C 49.2 °F /  9.6 °C 30.04in /  1017.2hPa NNE 2mph /  3.2km/h 4mph /  6.4km/h 99% 0.00in /  0mm 0 W/m2
04:00 49.5 °F /  9.7 °C 49.2 °F /  9.6 °C 30.04in /  1017.2hPa Calm   3mph /  4.8km/h 99% 0.00in /  0mm 0 W/m2
04:10 49.5 °F /  9.7 °C 49.2 °F /  9.6 °C 30.04in /  1017.2hPa Calm   4mph /  6.4km/h 99% 0.00in /  0mm 0 W/m2
04:20 49.3 °F /  9.6 °C 49 °F /  9.4 °C 30.04in /  1017.2hPa Calm   3mph /  4.8km/h 99% 0.00in /  0mm 0 W/m2
04:30 49.3 °F /  9.6 °C 49 °F /  9.4 °C 30.05in /  1017.5hPa Calm   4mph /  6.4km/h 99% 0.00in /  0mm 0 W/m2
04:40 49.1 °F /  9.5 °C 48.8 °F /  9.3 °C 30.05in /  1017.5hPa North 2mph /  3.2km/h 6mph /  9.7km/h 99% 0.00in /  0mm 0 W/m2
04:50 49.1 °F /  9.5 °C 48.8 °F /  9.3 °C 30.05in /  1017.5hPa NNW 1mph /  1.6km/h 4mph /  6.4km/h 99% 0.00in /  0mm 0 W/m2
05:00 48.9 °F /  9.4 °C 48.7 °F /  9.3 °C 30.05in /  1017.5hPa North 3mph /  4.8km/h 6mph /  9.7km/h 99% 0.00in /  0mm 0 W/m2
05:10 48.9 °F /  9.4 °C 48.7 °F /  9.3 °C 30.05in /  1017.5hPa NNE 3mph /  4.8km/h 7mph /  11.3km/h 99% 0.00in /  0mm 0 W/m2
05:20 48.9 °F /  9.4 °C 48.7 °F /  9.3 °C 30.05in /  1017.5hPa NNE 1mph /  1.6km/h 6mph /  9.7km/h 99% 0.00in /  0mm 0 W/m2
05:30 48.9 °F /  9.4 °C 48.7 °F /  9.3 °C 30.05in /  1017.5hPa NE 1mph /  1.6km/h 6mph /  9.7km/h 99% 0.00in /  0mm 0 W/m2
05:40 49.1 °F /  9.5 °C 48.8 °F /  9.3 °C 30.06in /  1017.8hPa NNW 2mph /  3.2km/h 5mph /  8km/h 99% 0.00in /  0mm 0 W/m2
05:50 49.1 °F /  9.5 °C 48.8 °F /  9.3 °C 30.06in /  1017.8hPa Calm   5mph /  8km/h 99% 0.00in /  0mm 0 W/m2
06:00 49.1 °F /  9.5 °C 48.8 °F /  9.3 °C 30.06in /  1017.8hPa Calm   5mph /  8km/h 99% 0.00in /  0mm 0 W/m2
06:10 49.1 °F /  9.5 °C 48.8 °F /  9.3 °C 30.06in /  1017.8hPa Calm   2mph /  3.2km/h 99% 0.00in /  0mm 2 W/m2
06:20 48.7 °F /  9.3 °C 48.5 °F /  9.2 °C 30.06in /  1017.8hPa NNW 2mph /  3.2km/h 4mph /  6.4km/h 99% 0.00in /  0mm 4 W/m2
06:30 48.7 °F /  9.3 °C 48.5 °F /  9.2 °C 30.07in /  1018.2hPa NW 1mph /  1.6km/h 4mph /  6.4km/h 99% 0.00in /  0mm 9 W/m2
Knjazevac, Serbia
Compliments of Weather Underground - 2 mb